Time;durP1;ratioP1;P1;durP2;ratioP2;P2;SDS_P1;SDS_P2;PMS_P1;PMS_P2;Temp;Humidity;BMP_temperature;BMP_pressure;BME280_temperature;BME280_humidity;BME280_pressure;Samples;Min_cycle;Max_cycle;Signal;HPM_P1;HPM_P2
2023/09/16 00:00:59;;;;;;;4.30;4.00;;;16.00;99.90;;;;;;5075936;28;20249;-77
2023/09/16 00:03:25;;;;;;;4.70;4.00;;;16.00;99.90;;;;;;5081564;28;20218;-75
2023/09/16 00:05:51;;;;;;;4.10;3.80;;;16.10;99.90;;;;;;5087238;28;20175;-76
2023/09/16 00:08:16;;;;;;;4.13;3.83;;;16.20;99.90;;;;;;5057251;28;20203;-78
2023/09/16 00:10:42;;;;;;;3.73;3.43;;;16.20;99.90;;;;;;5086078;28;20167;-78
2023/09/16 00:13:08;;;;;;;4.07;3.77;;;16.20;99.90;;;;;;5087445;28;20250;-78
2023/09/16 00:15:34;;;;;;;4.70;3.80;;;16.20;99.90;;;;;;5078488;28;20178;-78
2023/09/16 00:18:00;;;;;;;3.67;3.47;;;16.10;99.90;;;;;;5074764;28;20180;-78
2023/09/16 00:20:28;;;;;;;3.90;3.60;;;16.00;99.90;;;;;;5074486;28;20218;-78
2023/09/16 00:22:54;;;;;;;4.00;3.70;;;16.10;99.90;;;;;;5074700;28;20167;-77
2023/09/16 00:25:19;;;;;;;4.33;3.90;;;16.20;99.90;;;;;;5074713;28;20206;-79
2023/09/16 00:27:45;;;;;;;3.93;3.73;;;16.00;99.90;;;;;;5074660;28;20200;-78
2023/09/16 00:30:11;;;;;;;3.50;3.30;;;16.30;99.90;;;;;;5074715;28;20636;-78
2023/09/16 00:32:37;;;;;;;3.83;3.40;;;16.00;99.90;;;;;;5074395;28;20175;-79
2023/09/16 00:35:04;;;;;;;4.40;3.50;;;15.90;99.90;;;;;;5077508;28;20226;-79
2023/09/16 00:37:31;;;;;;;4.10;3.80;;;15.90;99.90;;;;;;5085789;28;20152;-77
2023/09/16 00:39:58;;;;;;;4.30;3.90;;;15.80;99.90;;;;;;5074415;28;20179;-78
2023/09/16 00:42:23;;;;;;;4.03;3.73;;;15.90;99.90;;;;;;5056445;28;20175;-79
2023/09/16 00:44:50;;;;;;;4.37;3.97;;;16.10;99.90;;;;;;5074436;28;20250;-78
2023/09/16 00:47:16;;;;;;;4.80;3.60;;;15.90;99.90;;;;;;5074341;28;20222;-80
2023/09/16 00:49:43;;;;;;;4.23;3.90;;;16.00;99.90;;;;;;5074032;28;20211;-79
2023/09/16 00:52:10;;;;;;;4.23;3.70;;;15.90;99.90;;;;;;5076007;28;20185;-78
2023/09/16 00:54:36;;;;;;;4.27;3.97;;;16.10;99.90;;;;;;5056604;28;20175;-77
2023/09/16 00:57:04;;;;;;;3.80;3.60;;;16.00;99.90;;;;;;5056533;28;20207;-81
2023/09/16 01:00:16;;;;;;;3.87;3.67;;;16.00;99.90;;;;;;5057247;28;20239;-80
2023/09/16 01:03:08;;;;;;;4.27;4.00;;;15.90;99.90;;;;;;5074815;28;20180;-81
2023/09/16 01:05:39;;;;;;;3.80;3.37;;;15.90;99.90;;;;;;5074447;28;20248;-82
2023/09/16 01:08:05;;;;;;;4.43;4.13;;;15.80;99.90;;;;;;5074298;28;20549;-82
2023/09/16 01:10:32;;;;;;;4.50;4.10;;;15.90;99.90;;;;;;5074444;28;20183;-80
2023/09/16 01:12:58;;;;;;;4.53;4.23;;;15.90;99.90;;;;;;5075220;28;20662;-81
2023/09/16 01:15:31;;;;;;;5.13;4.00;;;15.90;99.90;;;;;;5076443;28;20176;-84
2023/09/16 01:18:11;;;;;;;3.70;3.50;;;15.90;99.90;;;;;;5080685;28;20163;-82
2023/09/16 01:20:39;;;;;;;5.07;3.80;;;15.90;99.90;;;;;;5077622;28;20166;-81
2023/09/16 01:23:06;;;;;;;4.03;3.80;;;15.90;99.90;;;;;;5074486;28;20242;-79
2023/09/16 01:25:31;;;;;;;4.53;3.97;;;15.90;99.90;;;;;;5072809;28;20188;-78
2023/09/16 01:27:58;;;;;;;3.97;3.67;;;15.90;99.90;;;;;;5094145;28;20207;-79
2023/09/16 01:30:27;;;;;;;8.80;4.10;;;15.90;99.90;;;;;;5061376;28;20188;-77
2023/09/16 01:33:01;;;;;;;3.93;3.50;;;15.90;99.90;;;;;;5078770;28;20523;-79
2023/09/16 01:35:32;;;;;;;4.63;3.87;;;15.80;99.90;;;;;;5077971;28;20229;-78
2023/09/16 01:37:59;;;;;;;4.13;3.77;;;15.90;99.90;;;;;;5086587;28;20183;-79
2023/09/16 01:40:27;;;;;;;4.03;3.83;;;15.70;99.90;;;;;;5090437;28;20164;-78
2023/09/16 01:42:54;;;;;;;4.00;3.70;;;15.60;99.90;;;;;;5060739;28;20271;-77
2023/09/16 01:45:20;;;;;;;3.83;3.57;;;15.60;99.90;;;;;;5078258;28;20210;-80
2023/09/16 01:47:48;;;;;;;3.77;3.57;;;15.50;99.90;;;;;;5077637;28;20195;-80
2023/09/16 01:50:15;;;;;;;3.67;3.47;;;15.50;99.90;;;;;;5078581;28;20171;-77
2023/09/16 01:52:41;;;;;;;3.63;3.33;;;15.50;99.90;;;;;;5078255;28;20244;-79
2023/09/16 01:55:07;;;;;;;8.57;4.10;;;15.60;99.90;;;;;;5078109;28;20195;-79
2023/09/16 01:57:33;;;;;;;3.70;3.50;;;15.50;99.90;;;;;;5078812;28;20246;-79
2023/09/16 01:59:59;;;;;;;5.10;3.80;;;15.50;99.90;;;;;;5084627;28;20154;-81
2023/09/16 02:02:25;;;;;;;5.13;3.67;;;15.50;99.90;;;;;;5091172;28;20532;-79
2023/09/16 02:04:50;;;;;;;4.10;3.77;;;15.50;99.90;;;;;;5079400;28;20194;-80
2023/09/16 02:07:16;;;;;;;4.00;3.70;;;15.50;99.90;;;;;;5081893;28;20177;-78
2023/09/16 02:09:42;;;;;;;3.60;3.40;;;15.50;99.90;;;;;;5094347;28;20215;-76
2023/09/16 02:12:08;;;;;;;3.77;3.47;;;15.70;99.90;;;;;;5095516;28;20169;-77
2023/09/16 02:14:38;;;;;;;3.83;3.63;;;15.40;99.90;;;;;;5097738;28;20180;-79
2023/09/16 02:17:07;;;;;;;4.40;3.77;;;15.40;99.90;;;;;;5086763;28;20247;-79
2023/09/16 02:19:33;;;;;;;4.30;4.00;;;15.50;99.90;;;;;;5077222;28;20219;-79
2023/09/16 02:21:59;;;;;;;3.50;3.30;;;15.60;99.90;;;;;;5076510;28;20623;-76
2023/09/16 02:24:24;;;;;;;4.90;4.10;;;15.70;99.90;;;;;;5076296;28;20627;-78
2023/09/16 02:26:50;;;;;;;3.70;3.50;;;15.70;99.90;;;;;;5077080;28;20185;-80
2023/09/16 02:29:16;;;;;;;3.90;3.60;;;15.50;99.90;;;;;;5077033;28;20673;-79
2023/09/16 02:31:41;;;;;;;3.50;3.40;;;15.60;99.90;;;;;;5076351;28;20173;-79
2023/09/16 02:34:07;;;;;;;3.77;3.47;;;15.60;99.90;;;;;;5068603;28;20184;-79
2023/09/16 02:36:33;;;;;;;3.60;3.30;;;15.50;99.90;;;;;;5077573;28;20247;-78
2023/09/16 02:38:58;;;;;;;3.97;3.77;;;15.50;99.90;;;;;;5078954;28;20180;-77
2023/09/16 02:41:24;;;;;;;3.87;3.57;;;15.40;99.90;;;;;;5076507;28;20186;-80
2023/09/16 02:43:50;;;;;;;3.77;3.50;;;15.30;99.90;;;;;;5076926;28;20250;-80
2023/09/16 02:46:16;;;;;;;4.00;3.73;;;15.40;99.90;;;;;;5076701;28;20255;-79
2023/09/16 02:48:41;;;;;;;4.00;3.80;;;15.50;99.90;;;;;;5076502;28;20238;-79
2023/09/16 02:51:11;;;;;;;4.17;3.87;;;15.50;99.90;;;;;;5076145;28;20201;-80
2023/09/16 02:53:37;;;;;;;3.87;3.67;;;15.40;99.90;;;;;;5076180;28;20167;-79
2023/09/16 02:56:03;;;;;;;4.37;3.97;;;15.30;99.90;;;;;;5058092;28;20514;-81
2023/09/16 02:58:29;;;;;;;3.93;3.67;;;15.40;99.90;;;;;;5076195;28;20171;-79
2023/09/16 03:00:55;;;;;;;4.20;3.80;;;15.30;99.90;;;;;;5075614;28;20634;-80
2023/09/16 03:03:21;;;;;;;4.10;3.80;;;15.30;99.90;;;;;;5082229;28;20707;-80
2023/09/16 03:05:46;;;;;;;4.23;3.37;;;15.40;99.90;;;;;;5096079;28;20191;-82
2023/09/16 03:08:13;;;;;;;4.17;3.77;;;15.30;99.90;;;;;;5077109;28;20207;-79
2023/09/16 03:10:39;;;;;;;4.20;3.90;;;15.40;99.90;;;;;;5076235;28;20257;-83
2023/09/16 03:13:05;;;;;;;4.33;3.93;;;15.30;99.90;;;;;;5080786;28;20182;-79
2023/09/16 03:15:30;;;;;;;4.57;4.17;;;15.40;99.90;;;;;;5089285;28;20646;-78
2023/09/16 03:17:56;;;;;;;4.97;3.93;;;15.40;99.90;;;;;;5076308;28;20651;-78
2023/09/16 03:20:22;;;;;;;3.87;3.57;;;15.40;99.90;;;;;;5059026;28;20187;-78
2023/09/16 03:22:48;;;;;;;4.23;4.00;;;15.40;99.90;;;;;;5078872;28;20184;-79
2023/09/16 03:25:13;;;;;;;3.90;3.70;;;15.40;99.90;;;;;;5080735;28;20182;-78
2023/09/16 03:27:39;;;;;;;4.67;3.30;;;15.30;99.90;;;;;;5074985;28;20678;-79
2023/09/16 03:30:05;;;;;;;3.80;3.50;;;15.30;99.90;;;;;;5075602;28;20194;-78
2023/09/16 03:32:31;;;;;;;3.77;3.57;;;15.30;99.90;;;;;;5075181;28;20209;-79
2023/09/16 03:34:57;;;;;;;4.20;3.90;;;15.40;99.90;;;;;;5075301;28;20714;-80
2023/09/16 03:37:23;;;;;;;4.10;3.70;;;15.40;99.90;;;;;;5075817;28;20169;-79
2023/09/16 03:39:48;;;;;;;4.10;3.90;;;15.50;99.90;;;;;;5075624;28;20510;-78
2023/09/16 03:42:14;;;;;;;3.97;3.77;;;15.40;99.90;;;;;;5074203;28;20175;-80
2023/09/16 03:44:40;;;;;;;4.30;3.90;;;15.40;99.90;;;;;;5077695;28;20182;-80
2023/09/16 03:47:07;;;;;;;3.80;3.60;;;15.40;99.90;;;;;;5089578;28;20177;-79
2023/09/16 03:49:33;;;;;;;4.70;3.50;;;15.50;99.90;;;;;;5083581;28;20550;-78
2023/09/16 03:51:59;;;;;;;4.10;3.80;;;15.50;99.90;;;;;;5081456;28;20246;-80
2023/09/16 03:54:26;;;;;;;3.93;3.63;;;15.40;99.90;;;;;;5075622;28;20170;-78
2023/09/16 03:56:52;;;;;;;4.00;3.63;;;15.50;99.90;;;;;;5057811;28;20623;-79
2023/09/16 03:59:18;;;;;;;4.33;4.03;;;15.40;99.90;;;;;;5079271;28;20263;-77
2023/09/16 04:01:43;;;;;;;4.17;3.83;;;15.40;99.90;;;;;;5078558;28;20495;-76
2023/09/16 04:04:09;;;;;;;4.20;3.80;;;15.50;99.90;;;;;;5075118;28;20634;-78
2023/09/16 04:06:35;;;;;;;5.73;4.10;;;15.30;99.90;;;;;;5074829;28;20257;-79
2023/09/16 04:09:03;;;;;;;3.87;3.63;;;15.30;99.90;;;;;;5056589;28;20208;-79
2023/09/16 04:11:29;;;;;;;4.17;3.87;;;15.10;99.90;;;;;;5074817;28;20226;-78
2023/09/16 04:13:55;;;;;;;4.03;3.83;;;15.40;99.90;;;;;;5078449;28;20186;-79
2023/09/16 04:16:21;;;;;;;4.07;3.77;;;15.40;99.90;;;;;;5094403;28;20303;-78
2023/09/16 04:18:48;;;;;;;4.10;3.60;;;15.50;99.90;;;;;;5069194;28;20190;-79
2023/09/16 04:21:18;;;;;;;4.27;3.73;;;15.40;99.90;;;;;;5078327;28;20207;-79
2023/09/16 04:24:25;;;;;;;4.40;4.00;;;15.50;99.90;;;;;;5077456;28;20251;-79
2023/09/16 04:27:43;;;;;;;3.70;3.40;;;15.70;99.90;;;;;;5037884;28;20207;-79
2023/09/16 04:30:30;;;;;;;3.97;3.67;;;15.60;99.90;;;;;;5051811;28;20199;-79
2023/09/16 04:32:56;;;;;;;4.07;3.80;;;15.50;99.90;;;;;;5039113;28;20179;-80
2023/09/16 04:35:22;;;;;;;5.50;4.40;;;15.50;99.90;;;;;;5035960;28;20221;-78
2023/09/16 04:37:48;;;;;;;3.67;3.47;;;15.70;99.90;;;;;;5010173;28;20232;-78
2023/09/16 04:40:14;;;;;;;4.27;3.97;;;15.70;99.90;;;;;;5033187;28;20192;-77
2023/09/16 04:42:40;;;;;;;3.70;3.40;;;15.60;99.90;;;;;;5034620;28;20196;-77
2023/09/16 04:45:06;;;;;;;4.93;3.90;;;15.80;99.90;;;;;;5031296;28;20165;-76
2023/09/16 04:47:33;;;;;;;4.40;4.07;;;15.50;99.90;;;;;;5035373;28;20185;-75
2023/09/16 04:50:00;;;;;;;4.03;3.83;;;15.70;99.90;;;;;;5030905;28;20221;-79
2023/09/16 04:52:27;;;;;;;3.70;3.50;;;15.50;99.90;;;;;;5028016;28;20677;-80
2023/09/16 04:54:53;;;;;;;3.70;3.50;;;15.50;99.90;;;;;;5020579;28;20260;-79
2023/09/16 04:57:22;;;;;;;4.03;3.73;;;15.60;99.90;;;;;;5034052;28;20190;-79
2023/09/16 04:59:48;;;;;;;4.47;4.17;;;15.80;99.90;;;;;;5076140;28;20171;-81
2023/09/16 05:02:14;;;;;;;3.90;3.70;;;15.80;99.90;;;;;;5059556;28;20175;-77
2023/09/16 05:04:40;;;;;;;4.37;3.97;;;15.70;99.90;;;;;;5056791;28;20183;-78
2023/09/16 05:07:06;;;;;;;4.23;3.93;;;15.80;99.90;;;;;;5075271;28;20744;-79
2023/09/16 05:09:32;;;;;;;8.50;3.83;;;16.10;99.90;;;;;;5074344;28;20287;-80
2023/09/16 05:11:58;;;;;;;4.33;4.03;;;15.90;99.90;;;;;;5056438;28;20270;-80
2023/09/16 05:14:24;;;;;;;4.30;4.00;;;15.90;99.90;;;;;;5055894;28;20175;-79
2023/09/16 05:16:59;;;;;;;4.23;3.93;;;15.90;99.90;;;;;;5055868;28;20186;-80
2023/09/16 05:19:49;;;;;;;4.37;3.97;;;16.00;99.90;;;;;;5061387;28;20183;-78
2023/09/16 05:22:15;;;;;;;4.10;3.80;;;15.90;99.90;;;;;;5065735;28;20216;-80
2023/09/16 05:24:40;;;;;;;4.20;3.50;;;16.00;99.90;;;;;;5079668;28;20167;-80
2023/09/16 05:27:06;;;;;;;4.97;4.40;;;15.90;99.90;;;;;;5075216;28;20211;-80
2023/09/16 05:29:32;;;;;;;4.53;4.13;;;15.80;99.90;;;;;;5073650;28;20268;-80
2023/09/16 05:31:58;;;;;;;4.60;4.20;;;15.90;99.90;;;;;;5073658;28;20171;-79
2023/09/16 05:34:25;;;;;;;4.10;3.80;;;16.00;99.90;;;;;;5074034;28;20177;-79
2023/09/16 05:36:51;;;;;;;4.23;3.83;;;16.00;99.90;;;;;;5077002;28;20543;-77
2023/09/16 05:39:17;;;;;;;4.83;3.90;;;16.00;99.90;;;;;;5079613;28;20175;-78
2023/09/16 05:41:43;;;;;;;4.50;4.10;;;16.10;99.90;;;;;;5079181;28;20262;-79
2023/09/16 05:44:09;;;;;;;4.60;4.20;;;16.10;99.90;;;;;;5076310;28;20171;-79
2023/09/16 05:46:35;;;;;;;4.00;3.80;;;16.10;99.90;;;;;;5074428;28;20174;-80
2023/09/16 05:49:11;;;;;;;5.30;3.57;;;16.30;99.90;;;;;;5073231;28;20214;-78
2023/09/16 05:51:37;;;;;;;4.03;3.83;;;16.10;99.90;;;;;;5073524;28;20170;-80
2023/09/16 05:54:03;;;;;;;4.37;4.07;;;16.20;99.90;;;;;;5055801;28;20546;-78
2023/09/16 05:56:30;;;;;;;4.37;4.07;;;16.00;99.90;;;;;;5073444;28;20526;-79
2023/09/16 05:58:56;;;;;;;4.23;3.97;;;16.10;99.90;;;;;;5073435;28;20171;-81
2023/09/16 06:01:22;;;;;;;4.50;4.10;;;16.00;99.90;;;;;;5073385;28;20657;-79
2023/09/16 06:03:48;;;;;;;4.10;3.87;;;16.10;99.90;;;;;;5073573;28;20168;-78
2023/09/16 06:06:14;;;;;;;5.10;3.80;;;16.10;99.90;;;;;;5073562;28;20631;-79
2023/09/16 06:08:39;;;;;;;4.63;4.33;;;16.10;99.90;;;;;;5076320;28;20212;-78
2023/09/16 06:11:05;;;;;;;4.60;4.30;;;16.10;99.90;;;;;;5076798;28;20170;-79
2023/09/16 06:13:31;;;;;;;4.07;3.87;;;16.20;99.90;;;;;;5080348;28;20238;-79
2023/09/16 06:15:56;;;;;;;4.63;4.23;;;16.30;99.90;;;;;;5089593;28;20645;-79
2023/09/16 06:18:22;;;;;;;4.17;3.87;;;16.20;99.90;;;;;;5077317;28;20205;-79
2023/09/16 06:20:48;;;;;;;4.33;4.13;;;16.30;99.90;;;;;;5077166;28;20206;-78
2023/09/16 06:23:14;;;;;;;4.27;3.97;;;16.50;99.90;;;;;;5077025;28;20175;-80
2023/09/16 06:25:40;;;;;;;4.60;4.20;;;16.50;99.90;;;;;;5083874;28;20203;-81
2023/09/16 06:28:06;;;;;;;4.40;4.10;;;16.50;99.90;;;;;;5083073;28;20207;-76
2023/09/16 06:30:32;;;;;;;5.93;5.07;;;16.50;99.90;;;;;;5071779;28;20179;-80
2023/09/16 06:32:58;;;;;;;5.00;4.50;;;16.60;99.90;;;;;;5078263;28;20642;-79
2023/09/16 06:35:25;;;;;;;4.43;4.10;;;16.50;99.90;;;;;;5073627;28;20219;-78
2023/09/16 06:37:51;;;;;;;4.60;4.23;;;16.70;99.90;;;;;;5077800;28;20170;-80
2023/09/16 06:40:17;;;;;;;4.90;4.50;;;16.60;99.90;;;;;;5059194;28;20175;-78
2023/09/16 06:42:44;;;;;;;3.97;3.77;;;16.80;99.90;;;;;;5077199;28;20225;-80
2023/09/16 06:45:11;;;;;;;4.60;4.27;;;16.70;99.90;;;;;;5063970;28;20184;-77
2023/09/16 06:47:52;;;;;;;4.33;4.03;;;16.70;99.90;;;;;;5058791;28;20183;-78
2023/09/16 06:50:18;;;;;;;4.30;4.00;;;16.90;99.90;;;;;;5059501;28;20182;-78
2023/09/16 06:52:44;;;;;;;4.50;4.20;;;16.80;99.90;;;;;;5081855;28;20210;-79
2023/09/16 06:55:10;;;;;;;4.63;4.33;;;17.00;99.90;;;;;;5088205;28;20182;-77
2023/09/16 06:57:36;;;;;;;4.60;4.30;;;17.00;99.90;;;;;;5095756;28;20156;-79
2023/09/16 07:00:02;;;;;;;4.70;4.40;;;17.00;99.90;;;;;;5081785;28;20658;-80
2023/09/16 07:02:27;;;;;;;4.87;4.47;;;17.10;99.90;;;;;;5077006;28;20178;-78
2023/09/16 07:04:55;;;;;;;4.80;4.50;;;17.10;99.90;;;;;;5076257;28;20182;-79
2023/09/16 07:07:23;;;;;;;4.80;4.50;;;17.20;99.90;;;;;;5074783;28;20189;-79
2023/09/16 07:09:54;;;;;;;5.27;4.77;;;17.40;99.90;;;;;;5076498;28;20210;-77
2023/09/16 07:12:21;;;;;;;4.97;4.63;;;17.20;99.90;;;;;;5076054;28;20522;-80
2023/09/16 07:14:47;;;;;;;4.17;3.93;;;17.30;99.90;;;;;;5075456;28;20238;-80
2023/09/16 07:17:13;;;;;;;4.50;4.20;;;17.30;99.90;;;;;;5076744;28;20167;-79
2023/09/16 07:19:40;;;;;;;4.80;4.40;;;17.50;99.90;;;;;;5076631;28;20664;-80
2023/09/16 07:22:10;;;;;;;4.70;4.30;;;17.60;99.90;;;;;;5061641;28;20231;-78
2023/09/16 07:24:59;;;;;;;4.40;4.10;;;17.60;99.90;;;;;;5080358;28;20647;-80
2023/09/16 07:28:02;;;;;;;4.77;4.47;;;17.60;99.90;;;;;;5017066;28;20192;-80
2023/09/16 07:31:21;;;;;;;3.97;3.77;;;17.70;99.90;;;;;;5013641;28;20744;-83
2023/09/16 07:37:35;;;;;;;4.30;3.90;;;18.10;99.90;;;;;;4995894;28;20193;-81
2023/09/16 07:40:00;;;;;;;4.47;4.10;;;18.20;99.90;;;;;;4994509;28;20181;-78
2023/09/16 07:42:26;;;;;;;5.10;4.57;;;18.50;99.90;;;;;;4993954;28;20244;-80
2023/09/16 07:44:52;;;;;;;4.43;4.13;;;18.60;99.90;;;;;;4994108;28;20201;-79
2023/09/16 07:47:17;;;;;;;4.93;4.37;;;19.00;99.90;;;;;;4994802;28;20193;-80
2023/09/16 07:49:43;;;;;;;5.03;4.63;;;18.70;99.90;;;;;;4994781;28;20228;-80
2023/09/16 07:52:09;;;;;;;4.83;4.43;;;18.80;99.90;;;;;;5005177;28;20186;-79
2023/09/16 07:54:35;;;;;;;5.10;4.70;;;18.70;99.90;;;;;;4981635;28;20217;-81
2023/09/16 07:57:00;;;;;;;4.70;4.30;;;18.70;99.90;;;;;;4994958;28;20182;-80
2023/09/16 07:59:26;;;;;;;5.03;4.63;;;18.80;99.90;;;;;;5033309;28;20256;-79
2023/09/16 08:01:52;;;;;;;4.83;4.53;;;18.80;99.90;;;;;;5042178;28;20184;-79
2023/09/16 08:04:18;;;;;;;5.30;4.90;;;19.00;99.90;;;;;;5042605;28;20193;-79
2023/09/16 08:06:49;;;;;;;5.00;4.60;;;19.30;99.90;;;;;;5033051;28;20180;-80
2023/09/16 08:09:16;;;;;;;5.47;5.07;;;19.30;99.90;;;;;;5033026;28;20239;-81
2023/09/16 08:11:42;;;;;;;5.57;5.07;;;19.10;99.90;;;;;;5067792;28;20179;-79
2023/09/16 08:14:08;;;;;;;5.37;4.97;;;19.00;99.90;;;;;;5077064;28;20182;-80
2023/09/16 08:16:34;;;;;;;5.07;4.67;;;19.10;99.90;;;;;;5074771;28;20262;-81
2023/09/16 08:19:00;;;;;;;5.10;4.70;;;19.20;99.90;;;;;;5074174;28;20215;-80
2023/09/16 08:21:26;;;;;;;5.00;4.47;;;19.30;99.90;;;;;;5074736;28;20179;-82
2023/09/16 08:23:51;;;;;;;5.00;4.50;;;19.40;99.90;;;;;;5074345;28;20700;-79
2023/09/16 08:26:17;;;;;;;5.23;4.83;;;19.40;99.90;;;;;;5078564;28;20176;-80
2023/09/16 08:28:43;;;;;;;6.20;5.70;;;19.70;99.90;;;;;;5066019;28;20219;-80
2023/09/16 08:31:09;;;;;;;5.13;4.73;;;19.60;99.90;;;;;;5056227;28;20163;-79
2023/09/16 08:33:34;;;;;;;6.73;5.87;;;19.60;99.90;;;;;;5074627;28;20210;-79
2023/09/16 08:36:00;;;;;;;5.77;5.10;;;19.70;99.90;;;;;;5074582;28;20226;-78
2023/09/16 08:38:27;;;;;;;5.53;4.73;;;20.00;99.90;;;;;;5074523;28;20190;-80
2023/09/16 08:41:27;;;;;;;6.60;5.87;;;19.90;99.90;;;;;;5074824;28;20175;-79
2023/09/16 08:43:55;;;;;;;5.23;4.77;;;20.00;99.90;;;;;;5074487;28;20183;-81
2023/09/16 08:46:29;;;;;;;5.23;4.80;;;19.90;99.90;;;;;;5073996;28;20178;-79
2023/09/16 08:48:58;;;;;;;5.23;4.80;;;20.00;99.90;;;;;;5056428;28;20203;-80
2023/09/16 08:51:25;;;;;;;4.90;4.60;;;20.10;99.90;;;;;;5056396;28;20171;-80
2023/09/16 08:53:52;;;;;;;8.00;7.20;;;19.90;99.90;;;;;;5056468;28;20183;-81
2023/09/16 08:56:19;;;;;;;4.70;4.37;;;19.90;99.90;;;;;;5056699;28;20167;-78
2023/09/16 08:58:45;;;;;;;16.60;5.37;;;20.20;99.90;;;;;;5074415;28;20178;-80
2023/09/16 09:04:53;;;;;;;5.33;4.93;;;20.30;99.90;;;;;;5052397;28;20186;-80
2023/09/16 09:07:20;;;;;;;10.37;9.27;;;20.30;99.90;;;;;;5051793;28;20191;-76
2023/09/16 09:09:46;;;;;;;4.60;4.13;;;20.40;99.90;;;;;;5036027;28;20211;-79
2023/09/16 09:12:13;;;;;;;4.20;3.90;;;20.40;99.90;;;;;;5035843;28;20628;-78
2023/09/16 09:14:39;;;;;;;4.90;4.57;;;20.40;99.90;;;;;;5052375;28;20188;-79
2023/09/16 09:17:09;;;;;;;4.80;4.30;;;20.40;99.90;;;;;;5054925;28;20639;-78
2023/09/16 09:19:35;;;;;;;5.23;4.40;;;20.70;99.90;;;;;;5063487;28;20271;-80
2023/09/16 09:22:01;;;;;;;4.77;4.43;;;20.50;99.90;;;;;;5061309;28;20172;-78
2023/09/16 09:24:28;;;;;;;4.10;3.83;;;20.60;99.90;;;;;;5058324;28;20195;-77
2023/09/16 09:26:53;;;;;;;4.43;4.13;;;20.80;99.90;;;;;;5044075;28;20233;-78
2023/09/16 09:29:21;;;;;;;4.37;4.07;;;20.70;99.90;;;;;;5059495;28;20223;-76
2023/09/16 09:31:47;;;;;;;4.10;3.80;;;20.70;99.90;;;;;;5051690;28;20176;-79
2023/09/16 09:34:19;;;;;;;3.83;3.63;;;20.60;99.90;;;;;;5055502;28;20206;-79
2023/09/16 09:36:48;;;;;;;4.10;3.80;;;20.90;99.90;;;;;;5073585;28;20226;-79
2023/09/16 09:39:13;;;;;;;3.87;3.67;;;21.00;99.90;;;;;;5083882;28;20171;-78
2023/09/16 09:41:46;;;;;;;3.90;3.70;;;21.00;99.90;;;;;;5078774;28;20183;-80
2023/09/16 09:44:13;;;;;;;3.80;3.50;;;21.00;99.90;;;;;;5077393;28;20179;-77
2023/09/16 09:46:40;;;;;;;4.13;3.87;;;21.10;99.90;;;;;;5077405;28;20619;-79
2023/09/16 09:49:06;;;;;;;3.80;3.50;;;21.20;99.90;;;;;;5076494;28;20206;-78
2023/09/16 09:51:32;;;;;;;4.30;3.90;;;21.20;99.90;;;;;;5077365;28;20533;-79
2023/09/16 09:53:58;;;;;;;4.53;4.23;;;21.30;99.90;;;;;;5076948;28;20175;-80
2023/09/16 09:56:25;;;;;;;4.13;3.83;;;21.40;99.90;;;;;;5076771;28;20167;-80
2023/09/16 09:58:50;;;;;;;4.03;3.73;;;21.40;99.90;;;;;;5076919;28;20646;-79
2023/09/16 10:01:16;;;;;;;4.00;3.70;;;21.40;99.90;;;;;;5077445;28;20175;-80
2023/09/16 10:03:51;;;;;;;4.13;3.43;;;21.40;99.90;;;;;;5082709;28;20175;-80
2023/09/16 10:06:19;;;;;;;5.07;4.67;;;21.60;99.90;;;;;;5082845;28;20186;-78
2023/09/16 10:08:46;;;;;;;4.10;3.90;;;21.70;99.90;;;;;;5076894;28;20218;-78
2023/09/16 10:11:12;;;;;;;3.90;3.60;;;21.80;99.90;;;;;;5077031;28;20217;-77
2023/09/16 10:13:39;;;;;;;3.93;3.73;;;21.80;99.90;;;;;;5077065;28;20175;-79
2023/09/16 10:16:06;;;;;;;3.83;3.53;;;22.10;99.90;;;;;;5077451;28;20167;-79
2023/09/16 10:18:32;;;;;;;3.60;3.40;;;22.10;99.90;;;;;;5076336;28;20164;-79
2023/09/16 10:20:58;;;;;;;4.17;3.87;;;22.50;99.90;;;;;;5077034;28;20175;-78
2023/09/16 10:23:25;;;;;;;3.67;3.47;;;22.40;99.90;;;;;;5076923;28;20623;-79
2023/09/16 10:25:51;;;;;;;4.10;3.80;;;22.40;99.90;;;;;;5076558;28;20171;-79
2023/09/16 10:28:17;;;;;;;3.30;3.20;;;22.60;99.90;;;;;;5076571;28;20202;-79
2023/09/16 10:30:43;;;;;;;3.70;3.40;;;22.60;99.90;;;;;;5076478;28;20163;-81
2023/09/16 10:33:11;;;;;;;3.70;3.50;;;22.90;99.90;;;;;;5076901;28;20172;-78
2023/09/16 10:35:40;;;;;;;3.13;3.03;;;22.70;99.90;;;;;;5076442;28;20230;-78
2023/09/16 10:38:07;;;;;;;4.40;3.33;;;22.80;99.90;;;;;;5076745;28;20171;-79
2023/09/16 10:40:34;;;;;;;3.00;2.90;;;22.70;99.90;;;;;;5076464;28;20194;-79
2023/09/16 10:43:04;;;;;;;2.70;2.60;;;22.80;99.90;;;;;;5076308;28;20199;-79
2023/09/16 10:45:31;;;;;;;3.57;3.07;;;22.90;99.90;;;;;;5076514;28;20653;-79
2023/09/16 10:48:01;;;;;;;4.97;4.57;;;22.00;99.90;;;;;;5076900;28;20202;-78
2023/09/16 10:50:30;;;;;;;5.50;5.10;;;22.90;99.90;;;;;;5077104;28;20561;-80
2023/09/16 10:53:21;;;;;;;4.77;4.47;;;22.70;99.90;;;;;;5076527;28;20178;-79
2023/09/16 10:55:50;;;;;;;3.20;3.00;;;22.70;99.90;;;;;;5076604;28;20160;-80
2023/09/16 10:58:25;;;;;;;3.33;3.13;;;22.80;99.90;;;;;;5076271;28;20261;-78
2023/09/16 11:00:57;;;;;;;5.33;4.93;;;22.70;99.90;;;;;;5076772;28;20166;-81
2023/09/16 11:03:29;;;;;;;4.95;4.65;;;22.80;99.90;;;;;;5076230;28;20206;-81
2023/09/16 11:06:01;;;;;;;3.70;3.50;;;23.10;99.90;;;;;;5086149;28;20671;-81
2023/09/16 11:08:27;;;;;;;3.40;3.17;;;23.00;99.90;;;;;;5084084;28;20195;-78
2023/09/16 11:10:55;;;;;;;3.53;3.10;;;23.20;99.90;;;;;;5076219;28;20263;-80
2023/09/16 11:13:29;;;;;;;3.33;3.13;;;23.30;99.90;;;;;;5076367;28;20258;-81
2023/09/16 11:16:02;;;;;;;3.50;3.30;;;23.30;99.90;;;;;;5078841;28;20166;-81
2023/09/16 11:18:31;;;;;;;4.32;4.03;;;23.40;99.90;;;;;;5082772;28;20570;-81
2023/09/16 11:20:57;;;;;;;3.15;3.05;;;23.50;99.90;;;;;;5084935;28;20558;-81
2023/09/16 11:23:24;;;;;;;3.00;2.90;;;23.40;99.90;;;;;;5082204;28;20193;-80
2023/09/16 11:25:49;;;;;;;3.25;3.08;;;23.40;99.90;;;;;;5082016;28;20168;-81
2023/09/16 11:28:18;;;;;;;3.33;3.08;;;23.20;99.90;;;;;;5078635;28;20306;-82
2023/09/16 11:30:57;;;;;;;5.00;4.60;;;23.30;99.90;;;;;;5076452;28;20220;-78
2023/09/16 11:33:39;;;;;;;4.25;3.95;;;23.20;99.90;;;;;;5075689;28;20177;-80
2023/09/16 11:36:16;;;;;;;3.58;3.38;;;23.30;99.90;;;;;;5075141;28;20261;-78
2023/09/16 11:39:09;;;;;;;3.35;3.15;;;23.60;99.90;;;;;;5084980;28;20178;-82
2023/09/16 11:41:35;;;;;;;4.72;3.15;;;23.70;99.90;;;;;;5079200;28;20251;-78
2023/09/16 11:44:02;;;;;;;3.35;3.15;;;23.90;99.90;;;;;;5080907;28;20583;-80
2023/09/16 11:46:30;;;;;;;3.42;3.17;;;23.90;99.90;;;;;;5092990;28;20174;-78
2023/09/16 11:49:04;;;;;;;3.42;3.22;;;24.00;99.90;;;;;;5075059;28;20263;-77
2023/09/16 11:51:35;;;;;;;2.80;2.70;;;24.40;99.90;;;;;;5074423;28;20154;-79
2023/09/16 11:54:02;;;;;;;3.30;3.10;;;24.30;99.90;;;;;;5075038;28;20163;-79
2023/09/16 11:56:35;;;;;;;2.80;2.60;;;24.40;99.90;;;;;;5074564;28;20166;-77
2023/09/16 11:59:03;;;;;;;3.13;3.00;;;24.40;99.90;;;;;;5075146;28;20170;-77
2023/09/16 12:01:34;;;;;;;2.72;2.58;;;24.50;99.90;;;;;;5074597;28;20229;-76
2023/09/16 12:04:03;;;;;;;2.72;2.63;;;24.40;99.90;;;;;;5074509;28;20171;-79
2023/09/16 12:06:31;;;;;;;2.78;2.67;;;24.50;99.90;;;;;;5073532;28;20270;-78
2023/09/16 12:08:59;;;;;;;2.90;2.70;;;24.50;99.90;;;;;;5074432;28;20219;-77
2023/09/16 12:11:26;;;;;;;3.00;2.90;;;24.40;99.90;;;;;;5074707;28;20167;-78
2023/09/16 12:13:54;;;;;;;2.80;2.60;;;24.20;99.90;;;;;;5074464;28;20537;-79
2023/09/16 12:16:20;;;;;;;3.15;2.85;;;24.40;99.90;;;;;;5075204;28;20167;-82
2023/09/16 12:18:47;;;;;;;3.45;2.80;;;24.50;99.90;;;;;;5074488;28;20175;-79
2023/09/16 12:21:13;;;;;;;3.20;3.00;;;24.50;99.90;;;;;;5074477;28;20171;-79
2023/09/16 12:23:41;;;;;;;2.60;2.50;;;24.50;99.90;;;;;;5056672;28;20177;-78
2023/09/16 12:26:11;;;;;;;2.70;2.60;;;24.50;99.90;;;;;;5074210;28;20171;-83
2023/09/16 12:28:37;;;;;;;3.10;2.90;;;24.40;99.90;;;;;;5074216;28;20569;-80
2023/09/16 12:31:07;;;;;;;2.78;2.47;;;24.30;99.90;;;;;;5074485;28;20182;-79
2023/09/16 12:33:39;;;;;;;4.25;2.70;;;24.40;99.90;;;;;;5074804;28;20638;-82
2023/09/16 12:36:07;;;;;;;2.58;2.47;;;24.50;99.90;;;;;;5057959;28;20227;-81
2023/09/16 12:38:34;;;;;;;2.67;2.47;;;24.40;99.90;;;;;;5074780;28;20181;-82
2023/09/16 12:41:02;;;;;;;3.00;2.80;;;24.70;99.90;;;;;;5056795;28;20598;-82
2023/09/16 12:43:29;;;;;;;2.60;2.50;;;24.50;99.90;;;;;;5092366;28;20167;-82
2023/09/16 12:45:55;;;;;;;2.58;2.47;;;24.70;99.90;;;;;;5057664;28;20176;-81
2023/09/16 12:48:21;;;;;;;2.80;2.70;;;24.60;99.90;;;;;;5056568;28;20207;-81
2023/09/16 12:50:47;;;;;;;2.92;2.72;;;24.70;99.90;;;;;;5076001;28;20226;-81
2023/09/16 12:53:13;;;;;;;2.53;2.40;;;24.50;99.90;;;;;;5060865;28;20233;-82
2023/09/16 12:55:40;;;;;;;2.20;2.10;;;24.50;99.90;;;;;;5088759;28;20171;-83
2023/09/16 12:58:07;;;;;;;2.42;2.33;;;24.50;99.90;;;;;;5063352;28;20213;-83
2023/09/16 13:00:33;;;;;;;2.88;2.67;;;24.50;99.90;;;;;;5075063;28;20171;-82